Logo AVAMET
Benvolgut visitant, si us plau, ingressa Recuperar contrasenya
AVAMET paisatges

Inforatge Pedreguer Centre

Dades diàries. Acumulats / Últims 30 dies disponibles

Data Temperatura (°C) Humitat rel. (%) Pressió rel. (hPa) Vent (km/h) Precipitació
Mínima Mitjana Màxima Amplitud
tèrmica
Mínima Mitjana Màxima Mínima Mitjana Màxima Predom. Mitjana Ràfega
màxima
Total
(mm)
Índex-n
Mínima Mitjana Màxima Mínima Mitjana Màxima n
0 a 1
P0 max
mm 5'
Dades mensuals acumulades fins l'últim dia disponible
05/2020 13,7 17,0 20,1 21,3 19,6 26,1 31,2 17,5 30 68 93 1.004 1.019 1.030   6,4 48,3 16,8
Dades anuals acumulades fins l'últim dia disponible
2020 4,3 12,2 20,1 15,8 10,8 19,9 31,2 26,9 18 72 98 1.003 1.021 1.036   6,0 91,7 241,4
Últims 30 dies disponibles
29-05-2020 16,1     21,8     26,8 10,7 37 58 86 1.015 1.019 1.024 SE 5,8 33,8 0,0
28-05-2020 18,4     20,9     23,8 5,4 66 78 88 1.023 1.026 1.028 W 6,0 24,1 0,0
27-05-2020 17,7     20,9     24,3 6,6 59 75 86 1.026 1.027 1.028 WSW 6,9 29,0 0,0
26-05-2020 17,8     20,8     23,8 6,0 65 75 82 1.026 1.027 1.028 NW 6,4 25,7 0,0
25-05-2020 16,8     20,5     24,3 7,5 54 72 86 1.025 1.028 1.029 ENE 3,5 24,1 0,0
24-05-2020 19,1     21,4     24,3 5,2 52 77 89 1.028 1.029 1.030 NNE 5,8 22,5 0,0
23-05-2020 18,6     24,7     30,7 12,1 31 47 64 1.024 1.026 1.028 SE 6,4 38,6 0,0
22-05-2020 18,7     24,6     31,2 12,5 36 58 86 1.022 1.024 1.026 SSE 6,3 35,4 0,0
21-05-2020 18,2     23,8     29,9 11,7 38 67 92 1.019 1.021 1.023 ENE 6,3 33,8 0,0
20-05-2020 18,7     24,1     30,1 11,4 30 56 76 1.016 1.017 1.019 ENE 5,0 27,4 0,0
19-05-2020 16,4     23,4     30,2 13,8 36 58 89 1.017 1.019 1.022 SE 4,7 29,0 0,0
18-05-2020 15,1     20,9     27,0 11,9 44 67 85 1.020 1.022 1.024 SE 3,9 32,2 0,0
17-05-2020 15,3     18,5     23,0 7,7 62 77 88 1.020 1.022 1.024 SE 3,7 24,1 0,0
16-05-2020 13,9     16,8     19,6 5,7 72 84 91 1.016 1.018 1.021 W 7,4 37,0 4,6 0,35 1,70
15-05-2020 14,2     17,7     20,6 6,4 55 71 88 1.012 1.014 1.017 NNW 5,1 20,9 0,0
14-05-2020 13,7     17,1     21,7 8,0 51 71 91 1.004 1.007 1.012 W 8,7 45,1 9,0 0,32 1,00
13-05-2020 15,7     19,5     23,7 8,0 44 61 82 1.006 1.008 1.009 SE 8,4 29,0 0,0
12-05-2020 17,6     19,9     22,6 5,0 49 66 88 1.008 1.010 1.013 NNW 5,3 24,1 0,0
11-05-2020 18,4     22,2     27,1 8,7 35 49 58 1.009 1.010 1.013 W 12,9 40,2 0,0
10-05-2020 15,0     19,9     25,1 10,1 34 65 90 1.006 1.008 1.011 WSW 11,3 48,3 3,2 0,34 0,40
09-05-2020 17,2     20,4     25,5 8,3 65 78 88 1.010 1.013 1.017 ENE 5,8 29,0 0,0
08-05-2020 17,9     19,5     21,9 4,0 72 84 92 1.016 1.018 1.020 WNW 9,7 29,0 0,0
07-05-2020 17,3     20,1     23,9 6,6 53 80 91 1.019 1.020 1.021 NW 5,5 22,5 0,0
06-05-2020 17,1     21,1     26,7 9,6 48 75 89 1.017 1.018 1.020 NW 4,2 20,9 0,0
05-05-2020 16,2     22,2     29,7 13,5 46 73 92 1.014 1.016 1.018 ENE 2,7 20,9 0,0
04-05-2020 16,3     20,8     29,3 13,0 37 82 93 1.015 1.018 1.019 NNW 3,2 27,4 0,0
03-05-2020 18,3     23,8     29,1 10,8 40 59 91 1.018 1.019 1.021 ENE 4,5 25,7 0,0
02-05-2020 20,1     25,8     30,3 10,2 35 49 65 1.018 1.020 1.022 W 9,7 32,2 0,0
01-05-2020 17,7     24,2     30,6 12,9 36 48 63 1.017 1.019 1.020 W 11,7 33,8 0,0
30-04-2020 19,2     22,5     26,7 7,5 37 47 59 1.016 1.018 1.020 OSO 11,7 49,9 0,0
Últims 13 mesos disponibles
04/2020 9,3 12,9 19,2 15,9 14,3 19,6 26,7 17,4 47 76 94 1.007 1.017 1.027 W 6,3 49,9 44,2
03/2020 7,4 11,4 17,3 14,5 10,8 18,0 26,1 18,7 44 72 94 1.009 1.018 1.028 W 8,6 91,7 63,6
02/2020 7,2 11,1 15,9 15,4 14,2 20,5 27,1 19,9 35 69 89 1.015 1.027 1.034 ESE 4,1 43,5 6,0
01/2020 4,3 8,7 15,3 12,0 12,3 15,8 22,1 17,8 52 76 95 1.016 1.026 1.033 WSW 4,6 83,7 110,8
12/2019 7,5 11,4 17,7 14,4 13,2 17,9 24,4 16,9 49 71 92 1.005 1.020 1.034 W 6,3 78,9 160,0
11/2019 7,9 12,9 21,8 15,9 14,3 19,5 26,9 19,0 44 57 79 1.000 1.013 1.020 W 10,5 70,8 4,4
10/2019 10,7 16,8 20,6 20,7 16,4 24,7 31,8 21,1 46 70 87 1.010 1.018 1.023 SE 4,6 56,3 79,0
09/2019 14,0 20,2 23,3 23,7 22,9 27,4 34,3 20,3 54 77 95 1.012 1.019 1.025 SSE 5,7 83,7 177,6
08/2019 19,2 22,8 26,5 26,9 26,4 31,4 38,0 18,8 51 71 83 1.012 1.017 1.022 SSE 6,7 46,7 69,8
07/2019 21,5 23,1 27,9 27,2 27,9 32,1 39,6 18,1 45 65 80 1.008 1.016 1.023 SSE 6,9 66,7 1,2
06/2019 15,1 18,4 22,3 22,9 21,7 27,4 36,2 21,1 40 64 84 1.010 1.017 1.023 SSE 7,9 50,0 0,8
05/2019 10,1 15,0 21,3 19,0 19,4 23,5 30,2 20,1 50 67 83 1.006 1.017 1.026 SSE 6,8 68,5 8,6
04/2019 9,8 12,1 13,9 15,5 14,0 19,5 27,9 18,1 40 69 93 1.001 1.014 1.026 S 8,2 66,7 264,0
Tots els anys disponibles
2019 4,7 15,1 27,9 18,8 10,8 23,0 39,6 34,9 36 66 95 997 1.018 1.035 SSE 6,8 83,7 847,8
2018 3,8 15,3 27,4 18,9 7,7 23,0 37,2 33,4 37 68 93 999 1.018 1.032 SSE 6,6 82,0 590,6
2017 4,7 12,6 19,2 16,2 11,6 20,3 28,9 24,2 60 60 60 1.015 1.015 1.015 5,3 72,2 56,0
Temperatura (°C)
Humitat relativa (%)
Velocitat del vent i ràfega màxima (km/h)
Direcció del vent (°)
Pressió (hPa)
Precipitació (mm)
Nota sobre les dades: s'avisa a l'usuari de la provisionalitat i no oficialitat d'aquestes dades
Logo AVAMET blanc
Web allotjada a Sollutia
Llicència de Creative CommonsLa web d'AVAMET i els seus continguts estan subjectes a una llicència de
Reconeixement - No Comercial - Compartir igual
Últimes estacions:  la Vall d'Alba - Centre (Ajuntament soci), Chera (Ajuntament soci) - - -